createdAt,value
2024-01-16T00:03:48.248Z,4.95
2024-01-16T00:08:49.937Z,4.95
2024-01-16T00:13:51.609Z,4.35
2024-01-16T00:18:53.337Z,4.70
2024-01-16T00:23:54.985Z,4.55
2024-01-16T00:28:56.573Z,4.63
2024-01-16T00:33:58.289Z,4.00
2024-01-16T00:39:00.052Z,2.15
2024-01-16T00:44:01.746Z,1.00
2024-01-16T00:49:03.512Z,1.40
2024-01-16T00:54:07.446Z,1.40
2024-01-16T00:59:09.069Z,1.50
2024-01-16T01:04:10.837Z,1.40
2024-01-16T01:09:12.947Z,1.60
2024-01-16T01:14:15.069Z,1.50
2024-01-16T01:19:16.795Z,1.60
2024-01-16T01:24:18.453Z,1.73
2024-01-16T01:29:20.144Z,1.83
2024-01-16T01:34:22.067Z,1.75
2024-01-16T01:39:23.760Z,2.15
2024-01-16T01:44:26.255Z,1.92
2024-01-16T01:49:28.733Z,2.55
2024-01-16T01:54:31.912Z,2.22
2024-01-16T01:59:34.181Z,2.50
2024-01-16T02:04:37.227Z,2.30
2024-01-16T02:09:39.152Z,2.50
2024-01-16T02:14:40.980Z,2.42
2024-01-16T02:19:42.788Z,2.75
2024-01-16T02:24:44.498Z,3.10
2024-01-16T02:29:46.497Z,2.90
2024-01-16T02:34:48.295Z,3.00
2024-01-16T02:39:49.935Z,2.72
2024-01-16T02:44:51.638Z,3.45
2024-01-16T02:49:53.946Z,2.83
2024-01-16T02:54:55.549Z,3.08
2024-01-16T02:59:57.461Z,2.30
2024-01-16T03:04:59.097Z,2.53
2024-01-16T03:10:00.738Z,2.80
2024-01-16T03:15:02.426Z,2.58
2024-01-16T03:20:04.797Z,2.80
2024-01-16T03:25:08.717Z,2.88
2024-01-16T03:30:11.049Z,2.20
2024-01-16T03:35:12.858Z,2.38
2024-01-16T03:40:14.650Z,1.98
2024-01-16T03:45:17.891Z,1.92
2024-01-16T03:50:19.818Z,1.85
2024-01-16T03:55:22.180Z,2.08
2024-01-16T04:00:23.848Z,2.25
2024-01-16T04:05:25.612Z,1.80
2024-01-16T04:10:27.412Z,2.20
2024-01-16T04:15:29.655Z,1.65
2024-01-16T04:20:31.467Z,2.00
2024-01-16T04:25:33.118Z,1.90
2024-01-16T04:30:34.790Z,1.67
2024-01-16T04:35:36.567Z,1.77
2024-01-16T04:40:38.273Z,1.50
2024-01-16T04:45:39.918Z,3.08
2024-01-16T04:50:41.545Z,2.72
2024-01-16T04:55:43.181Z,2.58
2024-01-16T05:00:44.831Z,2.50
2024-01-16T05:05:46.597Z,2.83
2024-01-16T05:10:48.232Z,2.80
2024-01-16T05:15:49.991Z,2.42
2024-01-16T05:20:51.760Z,2.90
2024-01-16T05:25:53.420Z,2.47
2024-01-16T05:30:55.034Z,2.75
2024-01-16T05:35:58.795Z,3.10
2024-01-16T05:41:00.443Z,2.80
2024-01-16T05:46:02.089Z,3.20
2024-01-16T05:51:03.950Z,2.70
2024-01-16T05:56:05.989Z,2.47
2024-01-16T06:01:07.720Z,2.67
2024-01-16T06:06:09.432Z,2.67
2024-01-16T06:11:14.393Z,2.72
2024-01-16T06:16:17.630Z,2.72
2024-01-16T06:21:21.134Z,2.40
2024-01-16T06:26:24.362Z,1.63
2024-01-16T06:31:27.436Z,1.40
2024-01-16T06:36:29.205Z,1.50
2024-01-16T06:41:30.892Z,1.83
2024-01-16T06:46:32.664Z,1.63
2024-01-16T06:51:34.322Z,2.17
2024-01-16T06:56:35.965Z,1.92
2024-01-16T07:01:37.618Z,2.00
2024-01-16T07:06:39.300Z,1.73
2024-01-16T07:11:44.236Z,2.10
2024-01-16T07:16:46.277Z,2.10
2024-01-16T07:21:47.876Z,1.98
2024-01-16T07:26:49.640Z,1.77
2024-01-16T07:31:51.782Z,2.10
2024-01-16T07:36:53.485Z,2.55
2024-01-16T07:41:55.205Z,2.15
2024-01-16T07:46:56.865Z,2.60
2024-01-16T07:51:58.481Z,3.70
2024-01-16T07:57:00.683Z,3.60
2024-01-16T08:02:02.333Z,3.25
2024-01-16T08:07:04.361Z,3.15
2024-01-16T08:12:07.094Z,2.83
2024-01-16T08:17:09.401Z,3.30
2024-01-16T08:22:11.125Z,3.42
2024-01-16T08:27:13.466Z,3.95
2024-01-16T08:32:15.116Z,4.85
2024-01-16T08:37:16.775Z,5.47
2024-01-16T08:42:19.327Z,6.32
2024-01-16T08:47:21.045Z,5.28
2024-01-16T08:52:22.775Z,5.88
2024-01-16T08:57:25.522Z,5.65
2024-01-16T09:02:30.323Z,4.72
2024-01-16T09:07:32.141Z,4.38
2024-01-16T09:12:34.531Z,5.35
2024-01-16T09:17:36.346Z,4.70
2024-01-16T09:22:38.035Z,4.72
2024-01-16T09:27:39.703Z,4.72
2024-01-16T09:32:41.850Z,4.68
2024-01-16T09:37:43.496Z,4.30
2024-01-16T09:42:45.973Z,3.58
2024-01-16T09:47:51.738Z,3.35
2024-01-16T09:52:56.801Z,3.40
2024-01-16T09:58:01.667Z,3.33
2024-01-16T10:03:05.768Z,3.42
2024-01-16T10:08:09.331Z,3.10
2024-01-16T10:13:11.096Z,3.13
2024-01-16T10:18:31.905Z,3.70
2024-01-16T10:23:34.263Z,3.60
2024-01-16T10:28:37.227Z,3.13
2024-01-16T10:33:40.631Z,3.60
2024-01-16T10:38:44.932Z,3.50
2024-01-16T10:43:46.745Z,4.13
2024-01-16T10:49:01.646Z,3.53
2024-01-16T10:54:07.158Z,3.63
2024-01-16T10:59:20.091Z,3.30
2024-01-16T11:04:22.379Z,3.65
2024-01-16T11:09:24.914Z,3.70
2024-01-16T11:14:27.345Z,4.00
2024-01-16T11:19:38.962Z,4.00
2024-01-16T11:25:13.200Z,4.55
2024-01-16T11:30:31.489Z,4.15
2024-01-16T11:35:43.831Z,4.18
2024-01-16T11:40:45.525Z,3.25
2024-01-16T11:45:50.881Z,3.50
2024-01-16T11:50:53.931Z,3.58
2024-01-16T11:56:33.845Z,2.60
2024-01-16T12:01:43.047Z,2.67
2024-01-16T12:06:44.814Z,2.90
2024-01-16T12:12:05.736Z,7.10
2024-01-16T12:17:15.036Z,3.83
2024-01-16T12:27:19.362Z,7.05
2024-01-16T12:32:22.555Z,5.30
2024-01-16T12:37:24.270Z,4.18
2024-01-16T12:42:26.192Z,3.85
2024-01-16T12:47:27.988Z,5.20
2024-01-16T12:52:31.106Z,5.35
2024-01-16T12:57:32.778Z,4.80
2024-01-16T13:02:34.953Z,4.53
2024-01-16T13:07:36.835Z,4.03
2024-01-16T13:12:39.005Z,4.10
2024-01-16T13:17:40.847Z,4.78
2024-01-16T13:22:45.372Z,4.45
2024-01-16T13:27:49.508Z,5.05
2024-01-16T13:32:51.273Z,4.72
2024-01-16T13:37:52.976Z,3.88
2024-01-16T13:42:54.570Z,4.40
2024-01-16T13:47:57.047Z,5.18
2024-01-16T13:52:58.829Z,5.93
2024-01-16T13:58:00.968Z,7.03
2024-01-16T14:03:04.747Z,6.65
2024-01-16T14:08:06.725Z,6.38
2024-01-16T14:13:08.368Z,6.97
2024-01-16T14:18:10.454Z,5.72
2024-01-16T14:23:13.700Z,5.60
2024-01-16T14:28:21.143Z,4.75
2024-01-16T14:33:28.586Z,5.50
2024-01-16T14:38:30.345Z,5.15
2024-01-16T14:43:32.072Z,6.97
2024-01-16T14:48:33.807Z,7.30
2024-01-16T14:53:35.521Z,7.20
2024-01-16T14:58:37.122Z,5.70
2024-01-16T15:03:39.666Z,6.60
2024-01-16T15:08:41.383Z,6.30
2024-01-16T15:13:43.009Z,5.47
2024-01-16T15:18:45.055Z,5.90
2024-01-16T15:23:47.421Z,6.40
2024-01-16T15:28:50.504Z,7.43
2024-01-16T15:33:53.064Z,6.85
2024-01-16T15:38:54.796Z,7.72
2024-01-16T15:43:58.034Z,6.75
2024-01-16T15:48:59.812Z,5.80
2024-01-16T15:54:01.501Z,6.88
2024-01-16T15:59:03.172Z,11.63
2024-01-16T16:04:05.796Z,10.82
2024-01-16T16:09:08.978Z,14.07
2024-01-16T16:14:10.821Z,17.58
2024-01-16T16:19:12.789Z,16.17
2024-01-16T16:24:14.592Z,13.75
2024-01-16T16:29:16.566Z,14.93
2024-01-16T16:34:20.213Z,17.85
2024-01-16T16:39:23.718Z,21.15
2024-01-16T16:44:25.413Z,25.67
2024-01-16T16:49:27.153Z,22.88
2024-01-16T16:54:31.105Z,15.68
2024-01-16T16:59:32.826Z,14.90
2024-01-16T17:04:34.804Z,13.68
2024-01-16T17:09:36.592Z,14.52
2024-01-16T17:14:38.455Z,13.77
2024-01-16T17:19:41.611Z,12.32
2024-01-16T17:24:43.636Z,12.38
2024-01-16T17:29:46.309Z,13.43
2024-01-16T17:34:48.053Z,11.32
2024-01-16T17:39:51.224Z,13.48
2024-01-16T17:44:52.977Z,49.78
2024-01-16T17:49:54.684Z,37.35
2024-01-16T17:54:56.282Z,17.50
2024-01-16T17:59:57.961Z,17.30
2024-01-16T18:04:59.612Z,16.42
2024-01-16T18:10:01.194Z,15.95
2024-01-16T18:15:02.872Z,14.95
2024-01-16T18:20:10.690Z,14.98
2024-01-16T18:25:15.176Z,17.23
2024-01-16T18:30:17.146Z,16.05
2024-01-16T18:35:19.860Z,19.10
2024-01-16T18:40:23.666Z,17.92
2024-01-16T18:45:25.466Z,18.50
2024-01-16T18:50:27.507Z,17.02
2024-01-16T18:55:29.383Z,16.48
2024-01-16T19:00:30.990Z,18.85
2024-01-16T19:05:35.797Z,18.70
2024-01-16T19:10:37.561Z,18.67
2024-01-16T19:15:39.190Z,17.00
2024-01-16T19:20:41.264Z,15.80
2024-01-16T19:25:42.911Z,17.20
2024-01-16T19:30:44.880Z,16.60
2024-01-16T19:35:50.647Z,17.90
2024-01-16T19:40:53.172Z,17.27
2024-01-16T19:45:54.797Z,19.27
2024-01-16T19:50:56.714Z,20.40
2024-01-16T19:56:00.230Z,19.15
2024-01-16T20:01:04.011Z,17.67
2024-01-16T20:06:05.931Z,19.65
2024-01-16T20:11:07.564Z,18.63
2024-01-16T20:16:09.284Z,18.50
2024-01-16T20:21:10.959Z,17.30
2024-01-16T20:26:13.279Z,17.88
2024-01-16T20:31:15.087Z,17.30
2024-01-16T20:36:17.763Z,17.83
2024-01-16T20:41:19.465Z,16.85
2024-01-16T20:46:21.127Z,16.30
2024-01-16T20:51:23.279Z,15.98
2024-01-16T20:56:24.912Z,16.85
2024-01-16T21:01:26.525Z,16.05
2024-01-16T21:06:28.529Z,15.68
2024-01-16T21:11:30.297Z,14.52
2024-01-16T21:16:32.991Z,12.40
2024-01-16T21:21:34.705Z,12.90
2024-01-16T21:26:36.392Z,13.65
2024-01-16T21:31:49.827Z,13.55
2024-01-16T21:36:53.945Z,13.82
2024-01-16T21:41:55.666Z,13.40
2024-01-16T21:46:57.345Z,14.32
2024-01-16T21:51:59.839Z,13.90
2024-01-16T21:57:01.491Z,13.68
2024-01-16T22:02:03.201Z,12.55
2024-01-16T22:07:04.918Z,11.63
2024-01-16T22:12:09.798Z,11.82
2024-01-16T22:17:11.561Z,10.85
2024-01-16T22:22:13.170Z,11.32
2024-01-16T22:27:14.770Z,10.82
2024-01-16T22:32:16.368Z,11.82
2024-01-16T22:37:19.038Z,10.48
2024-01-16T22:42:21.796Z,11.77
2024-01-16T22:47:23.560Z,11.57
2024-01-16T22:52:27.633Z,12.35
2024-01-16T22:57:29.275Z,12.15
2024-01-16T23:02:30.936Z,12.93
2024-01-16T23:07:32.526Z,13.13
2024-01-16T23:12:34.194Z,12.13
2024-01-16T23:17:36.102Z,13.45
2024-01-16T23:22:56.492Z,12.00
2024-01-16T23:27:58.104Z,11.95
2024-01-16T23:33:00.787Z,12.93
2024-01-16T23:38:02.731Z,13.05
2024-01-16T23:43:04.604Z,11.43
2024-01-16T23:48:06.613Z,12.00
2024-01-16T23:53:08.343Z,11.50
2024-01-16T23:58:10.293Z,11.93
